Flugplatz Niederstetten Airport

Bericht für ETHN

vom 20.10. um 02:20 UTC

Wind 4 kt aus 140°

Sichtweite 10 km oder mehr

Temperatur 10.0°C

Taupunkt 6.0°C

Luftfeuchtigkeit 76%

Luftdruck 1017 hPa

ETHN 200220Z AUTO 14004KT 9999 // ////// 10/06 Q1017 ///

Prognose für ETHN

vom 19.10. um 19:07 UTC

Am 19.10. zwischen 20:00 UTC und 05:00 UTC

Wind 5 kt aus 170°

Sichtweite 10 km oder mehr

keine signifikanten Wettererscheinungen

aufgelockert bewölkt in 6000 ft

TAF ETHN 191907Z 1920/2005 17005KT 9999 NSW SCT060
Impressum